Time;durP1;ratioP1;P1;durP2;ratioP2;P2;SDS_P1;SDS_P2;PMS_P1;PMS_P2;Temp;Humidity;BMP_temperature;BMP_pressure;BME280_temperature;BME280_humidity;BME280_pressure;Samples;Min_cycle;Max_cycle;Signal;HPM_P1;HPM_P2
2022/10/10 00:01:25;;;;;;;11.40;10.80;;;;;;;9.04;100.00;101821.69;5020686;28;20049;-67
2022/10/10 00:03:51;;;;;;;11.30;10.70;;;;;;;9.05;100.00;101823.38;5021552;28;20026;-67
2022/10/10 00:06:18;;;;;;;11.25;10.65;;;;;;;8.92;100.00;101820.09;5025725;28;20026;-67
2022/10/10 00:08:44;;;;;;;11.13;10.52;;;;;;;8.87;100.00;101824.94;5023652;28;20033;-66
2022/10/10 00:11:12;;;;;;;11.80;11.15;;;;;;;8.80;100.00;101827.28;5044337;28;20116;-67
2022/10/10 00:13:38;;;;;;;11.07;10.48;;;;;;;8.75;100.00;101833.94;5019102;28;20017;-66
2022/10/10 00:16:03;;;;;;;11.23;10.63;;;;;;;8.58;100.00;101820.31;5029378;28;20031;-67
2022/10/10 00:18:30;;;;;;;11.15;10.55;;;;;;;8.67;100.00;101826.66;5026022;28;20033;-67
2022/10/10 00:20:56;;;;;;;10.82;10.32;;;;;;;8.60;100.00;101820.22;5023629;28;20048;-67
2022/10/10 00:23:22;;;;;;;11.45;10.85;;;;;;;8.53;100.00;101827.81;5026297;28;20029;-67
2022/10/10 00:25:47;;;;;;;11.40;10.80;;;;;;;8.52;100.00;101822.66;5020865;28;20427;-68
2022/10/10 00:28:13;;;;;;;11.38;10.77;;;;;;;8.45;100.00;101821.50;5021758;28;20119;-68
2022/10/10 00:30:39;;;;;;;12.45;11.75;;;;;;;8.40;100.00;101823.69;5021129;28;20087;-68
2022/10/10 00:33:05;;;;;;;11.93;11.23;;;;;;;8.36;100.00;101828.38;5023244;28;20049;-68
2022/10/10 00:35:31;;;;;;;11.60;10.98;;;;;;;8.44;100.00;101827.75;5022692;28;20492;-67
2022/10/10 00:37:56;;;;;;;11.18;10.57;;;;;;;8.44;100.00;101825.09;5024120;28;20044;-67
2022/10/10 00:40:22;;;;;;;11.48;10.88;;;;;;;8.24;100.00;101824.09;5020527;28;20038;-68
2022/10/10 00:42:48;;;;;;;11.35;10.75;;;;;;;8.35;100.00;101834.66;5025795;28;20037;-67
2022/10/10 00:45:27;;;;;;;11.57;10.95;;;;;;;8.47;100.00;101833.63;5026920;28;20033;-68
2022/10/10 00:48:14;;;;;;;11.20;10.60;;;;;;;8.44;100.00;101835.69;5025106;28;20036;-67
2022/10/10 00:50:44;;;;;;;10.60;10.10;;;;;;;8.46;100.00;101847.00;5024026;28;20033;-68
2022/10/10 00:53:14;;;;;;;11.40;10.80;;;;;;;8.57;100.00;101842.44;5025047;28;20497;-68
2022/10/10 00:55:41;;;;;;;11.30;10.70;;;;;;;8.61;100.00;101829.00;5026296;28;20034;-67
2022/10/10 00:58:07;;;;;;;11.15;10.55;;;;;;;8.55;100.00;101831.19;5016220;28;20380;-67
2022/10/10 01:00:33;;;;;;;11.13;10.52;;;;;;;8.61;100.00;101839.56;5025738;28;20021;-67
2022/10/10 01:02:58;;;;;;;11.20;10.60;;;;;;;8.61;100.00;101829.00;5028275;28;20452;-67
2022/10/10 01:05:24;;;;;;;11.30;10.70;;;;;;;8.60;100.00;101827.31;5028154;28;20391;-67
2022/10/10 01:07:50;;;;;;;11.30;10.70;;;;;;;8.60;100.00;101822.84;5030021;28;20025;-66
2022/10/10 01:10:18;;;;;;;11.70;11.10;;;;;;;8.58;100.00;101824.78;5020352;28;20492;-68
2022/10/10 01:13:17;;;;;;;11.32;10.73;;;;;;;8.60;100.00;101822.03;5028557;28;20128;-67
2022/10/10 01:16:15;;;;;;;11.18;10.57;;;;;;;8.53;100.00;101827.81;5027601;28;20063;-67
2022/10/10 01:18:58;;;;;;;11.35;10.75;;;;;;;8.47;100.00;101827.50;5021519;28;20050;-68
2022/10/10 01:21:52;;;;;;;11.05;10.45;;;;;;;8.56;100.00;101819.63;5025631;28;20026;-68
2022/10/10 01:24:48;;;;;;;10.40;9.90;;;;;;;8.58;100.00;101830.91;5020065;28;20095;-68
2022/10/10 01:27:47;;;;;;;11.10;10.50;;;;;;;8.63;100.00;101833.16;5026349;28;20129;-67
2022/10/10 01:30:20;;;;;;;11.20;10.60;;;;;;;8.65;100.00;101827.75;5023358;28;20454;-68
2022/10/10 01:33:17;;;;;;;11.98;11.27;;;;;;;8.61;100.00;101832.47;5023514;28;20044;-65
2022/10/10 01:36:03;;;;;;;11.35;10.75;;;;;;;8.58;100.00;101830.91;5026881;28;20051;-67
2022/10/10 01:38:32;;;;;;;10.95;10.35;;;;;;;8.61;100.00;101842.22;5020563;28;20072;-68
2022/10/10 01:41:15;;;;;;;11.38;10.77;;;;;;;8.69;100.00;101831.81;5028309;28;20127;-67
2022/10/10 01:43:41;;;;;;;11.10;10.50;;;;;;;8.61;100.00;101836.91;5018479;28;20033;-67
2022/10/10 01:46:12;;;;;;;10.80;10.30;;;;;;;8.58;100.00;101836.19;5026156;28;20046;-67
2022/10/10 01:48:39;;;;;;;11.77;11.10;;;;;;;8.65;100.00;101843.63;5020996;28;20080;-68
2022/10/10 01:51:50;;;;;;;10.60;10.10;;;;;;;8.58;100.00;101849.41;5030727;28;20155;-67
2022/10/10 01:54:15;;;;;;;10.70;10.20;;;;;;;8.57;100.00;101841.63;5025996;28;20028;-67
2022/10/10 01:56:46;;;;;;;11.40;10.80;;;;;;;8.55;100.00;101841.75;5025521;28;20037;-67
2022/10/10 01:59:56;;;;;;;11.13;10.52;;;;;;;8.63;100.00;101848.19;5026119;28;20045;-67
2022/10/10 02:02:24;;;;;;;12.63;11.88;;;;;;;8.61;100.00;101850.16;5020475;28;20495;-67
2022/10/10 02:05:03;;;;;;;12.25;11.55;;;;;;;8.62;100.00;101854.47;5025878;28;20033;-67
2022/10/10 02:08:10;;;;;;;11.40;10.80;;;;;;;8.64;100.00;101850.72;5026948;28;20021;-68
2022/10/10 02:10:43;;;;;;;11.38;10.77;;;;;;;8.71;100.00;101854.50;4990484;28;20038;-67
2022/10/10 02:13:11;;;;;;;11.20;10.60;;;;;;;8.70;100.00;101844.91;4988244;28;20026;-67
2022/10/10 02:15:43;;;;;;;10.98;10.38;;;;;;;8.70;100.00;101852.00;5011980;28;20503;-67
2022/10/10 02:18:11;;;;;;;11.00;10.40;;;;;;;8.62;100.00;101867.69;5027290;28;20025;-68
2022/10/10 02:20:36;;;;;;;10.82;10.27;;;;;;;8.58;100.00;101865.28;5023454;28;20172;-66
2022/10/10 02:23:04;;;;;;;10.63;10.13;;;;;;;8.44;100.00;101865.59;5023465;28;20459;-68
2022/10/10 02:25:34;;;;;;;11.20;10.60;;;;;;;8.43;100.00;101873.66;5021380;28;20040;-67
2022/10/10 02:28:07;;;;;;;10.65;10.15;;;;;;;8.30;100.00;101869.38;5026568;28;20633;-68
2022/10/10 02:30:40;;;;;;;10.60;10.10;;;;;;;8.36;100.00;101872.50;5027144;28;20056;-67
2022/10/10 02:33:07;;;;;;;11.57;10.98;;;;;;;8.31;100.00;101870.22;5024990;28;20037;-67
2022/10/10 02:35:41;;;;;;;11.30;10.70;;;;;;;8.28;100.00;101870.47;5023949;28;20025;-68
2022/10/10 02:38:10;;;;;;;10.90;10.35;;;;;;;8.22;100.00;101873.59;5026194;28;20041;-67
2022/10/10 02:40:36;;;;;;;10.75;10.25;;;;;;;8.19;100.00;101876.50;5043042;28;20018;-67
2022/10/10 02:43:05;;;;;;;11.27;10.68;;;;;;;8.11;100.00;101873.66;5026601;28;20091;-67
2022/10/10 02:45:32;;;;;;;11.48;10.88;;;;;;;8.02;100.00;101868.16;5023500;28;20435;-67
2022/10/10 02:47:59;;;;;;;10.65;10.15;;;;;;;8.01;100.00;101879.72;5020071;28;20135;-66
2022/10/10 02:50:26;;;;;;;11.63;11.02;;;;;;;7.98;100.00;101882.56;5024136;28;20477;-68
2022/10/10 02:52:51;;;;;;;11.00;10.40;;;;;;;7.92;100.00;101872.50;5027650;28;20029;-67
2022/10/10 02:55:17;;;;;;;11.27;10.68;;;;;;;8.02;100.00;101881.38;5025483;28;20042;-67
2022/10/10 02:57:42;;;;;;;11.45;10.85;;;;;;;7.95;100.00;101868.78;5025568;28;20029;-67
2022/10/10 03:00:08;;;;;;;11.27;10.68;;;;;;;7.87;100.00;101882.63;5027135;28;20428;-67
2022/10/10 03:02:34;;;;;;;12.32;11.63;;;;;;;7.91;100.00;101884.03;5025088;28;20064;-68
2022/10/10 03:04:59;;;;;;;11.13;10.52;;;;;;;8.04;100.00;101889.19;5017884;28;20061;-67
2022/10/10 03:07:25;;;;;;;11.38;10.77;;;;;;;8.02;100.00;101896.41;5023087;28;20025;-67
2022/10/10 03:09:51;;;;;;;11.73;11.13;;;;;;;7.92;100.00;101896.28;5019892;28;20079;-67
2022/10/10 03:12:17;;;;;;;11.75;11.13;;;;;;;7.92;100.00;101898.94;5021330;28;20034;-68
2022/10/10 03:14:43;;;;;;;11.60;11.00;;;;;;;7.98;100.00;101905.53;5022132;28;20067;-68
2022/10/10 03:17:09;;;;;;;11.80;11.15;;;;;;;7.86;100.00;101902.09;5026886;28;20729;-67
2022/10/10 03:19:35;;;;;;;10.80;10.27;;;;;;;7.88;100.00;101910.72;5023054;28;20040;-66
2022/10/10 03:22:00;;;;;;;11.23;10.63;;;;;;;7.84;100.00;101909.28;5025761;28;20044;-67
2022/10/10 03:24:26;;;;;;;11.10;10.50;;;;;;;7.84;100.00;101906.63;5020838;28;20405;-67
2022/10/10 03:26:51;;;;;;;11.27;10.68;;;;;;;7.89;100.00;101908.91;5024171;28;20029;-68
2022/10/10 03:29:17;;;;;;;11.00;10.40;;;;;;;7.89;100.00;101917.69;5019962;28;20029;-69
2022/10/10 03:31:42;;;;;;;11.60;10.98;;;;;;;7.93;100.00;101919.13;5020480;28;20069;-68
2022/10/10 03:34:08;;;;;;;11.98;11.27;;;;;;;7.91;100.00;101913.09;5024774;28;20033;-68
2022/10/10 03:36:33;;;;;;;11.40;10.80;;;;;;;7.81;100.00;101916.63;5021170;28;20416;-67
2022/10/10 03:38:59;;;;;;;11.60;11.00;;;;;;;7.78;100.00;101916.84;5020270;28;20396;-67
2022/10/10 03:41:24;;;;;;;11.20;10.60;;;;;;;7.73;100.00;101914.59;5025088;28;20472;-68
2022/10/10 03:43:50;;;;;;;10.90;10.32;;;;;;;7.58;100.00;101918.44;5020968;28;20431;-68
2022/10/10 03:46:16;;;;;;;11.95;11.25;;;;;;;7.65;100.00;101920.47;5021440;28;20056;-67
2022/10/10 03:48:41;;;;;;;12.00;11.30;;;;;;;7.56;100.00;101917.72;5020817;28;20037;-66
2022/10/10 03:51:07;;;;;;;11.77;11.15;;;;;;;7.70;100.00;101922.75;5027841;28;20021;-65
2022/10/10 03:53:32;;;;;;;11.70;11.07;;;;;;;7.65;100.00;101928.41;5025647;28;20112;-65
2022/10/10 03:55:58;;;;;;;11.90;11.20;;;;;;;7.82;100.00;101921.78;5024123;28;20116;-66
2022/10/10 03:58:23;;;;;;;11.98;11.27;;;;;;;7.65;100.00;101917.84;5020990;28;20052;-67
2022/10/10 04:00:57;;;;;;;12.23;11.52;;;;;;;7.55;100.00;101921.31;5026085;28;20026;-66
2022/10/10 04:03:24;;;;;;;11.27;10.68;;;;;;;7.52;100.00;101919.75;5018331;28;20040;-66
2022/10/10 04:05:50;;;;;;;12.00;11.30;;;;;;;7.51;100.00;101931.28;5021448;28;20062;-66
2022/10/10 04:08:16;;;;;;;11.68;11.07;;;;;;;7.47;100.00;101925.41;5024185;28;20527;-66
2022/10/10 04:10:42;;;;;;;11.73;11.07;;;;;;;7.48;100.00;101939.44;5029288;28;20036;-66
2022/10/10 04:13:07;;;;;;;11.70;11.10;;;;;;;7.53;100.00;101939.09;5025034;28;20091;-67
2022/10/10 04:15:33;;;;;;;12.38;11.68;;;;;;;7.66;100.00;101942.44;5021687;28;20030;-67
2022/10/10 04:17:59;;;;;;;12.30;11.60;;;;;;;7.65;100.00;101943.41;5021104;28;20239;-68
2022/10/10 04:20:25;;;;;;;12.43;11.73;;;;;;;7.67;100.00;101947.59;5025823;28;20109;-68
2022/10/10 04:22:51;;;;;;;12.93;12.13;;;;;;;7.83;100.00;101944.59;5024302;28;20091;-68
2022/10/10 04:25:16;;;;;;;12.10;11.40;;;;;;;8.03;100.00;101954.41;5026537;28;20061;-68
2022/10/10 04:27:45;;;;;;;11.60;11.00;;;;;;;8.30;100.00;101955.81;5022866;28;20037;-68
2022/10/10 04:30:11;;;;;;;11.85;11.15;;;;;;;8.23;100.00;101962.53;5020642;28;20038;-69
2022/10/10 04:32:37;;;;;;;12.10;11.40;;;;;;;8.60;100.00;101965.69;5020854;28;20037;-67
2022/10/10 04:35:03;;;;;;;11.35;10.75;;;;;;;8.88;100.00;101964.22;5027475;28;20508;-67
2022/10/10 04:37:29;;;;;;;11.95;11.25;;;;;;;9.42;100.00;101968.47;5023906;28;20034;-67
2022/10/10 04:39:54;;;;;;;13.45;12.63;;;;;;;9.67;100.00;101960.06;5030635;28;20412;-69
2022/10/10 04:42:20;;;;;;;11.32;10.73;;;;;;;9.65;100.00;101964.66;5027766;28;20499;-68
2022/10/10 04:44:46;;;;;;;11.25;10.65;;;;;;;10.24;100.00;101966.53;5025288;28;20061;-65
2022/10/10 04:47:12;;;;;;;11.43;10.82;;;;;;;10.00;100.00;101960.75;5024910;28;20049;-67
2022/10/10 04:49:37;;;;;;;10.40;9.90;;;;;;;10.73;100.00;101962.09;5026241;28;20421;-66
2022/10/10 04:52:03;;;;;;;11.27;10.68;;;;;;;10.67;100.00;101962.66;5032469;28;20380;-66
2022/10/10 04:54:29;;;;;;;11.02;10.43;;;;;;;11.11;100.00;101960.38;5026062;28;20041;-67
2022/10/10 04:56:54;;;;;;;12.82;12.13;;;;;;;10.75;100.00;101960.13;5024249;28;20034;-66
2022/10/10 04:59:20;;;;;;;12.00;11.40;;;;;;;11.34;100.00;101960.88;5026556;28;20112;-67
2022/10/10 05:01:45;;;;;;;11.98;11.38;;;;;;;11.64;100.00;101967.75;5021428;28;20511;-66
2022/10/10 05:04:12;;;;;;;11.60;11.00;;;;;;;11.00;100.00;101964.00;5019783;28;20034;-65
2022/10/10 05:06:37;;;;;;;12.23;11.55;;;;;;;11.67;100.00;101974.59;5019581;28;20036;-66
2022/10/10 05:09:02;;;;;;;12.38;11.68;;;;;;;12.76;100.00;101970.97;5030567;28;20341;-66
2022/10/10 05:11:28;;;;;;;12.07;11.48;;;;;;;13.27;100.00;101975.56;5021384;28;20609;-66
2022/10/10 05:13:53;;;;;;;12.00;11.40;;;;;;;11.65;100.00;101977.41;5022949;28;20554;-65
2022/10/10 05:16:19;;;;;;;11.93;11.32;;;;;;;12.13;100.00;101987.00;5021600;28;20016;-66
2022/10/10 05:18:44;;;;;;;11.60;11.00;;;;;;;11.33;100.00;101983.94;5027369;28;20056;-66
2022/10/10 05:21:10;;;;;;;12.00;11.40;;;;;;;13.81;100.00;101991.38;5026477;28;20040;-67
2022/10/10 05:23:37;;;;;;;11.48;10.88;;;;;;;11.81;100.00;101990.94;5024231;28;20399;-66
2022/10/10 05:26:03;;;;;;;11.77;11.18;;;;;;;11.80;100.00;101997.22;5023671;28;20030;-67
2022/10/10 05:28:28;;;;;;;12.02;11.43;;;;;;;13.21;100.00;101994.81;5016699;28;20048;-67
2022/10/10 05:30:54;;;;;;;12.05;11.45;;;;;;;12.30;100.00;101999.50;5022863;28;20025;-67
2022/10/10 05:33:19;;;;;;;11.73;11.13;;;;;;;12.58;100.00;101989.63;5043791;28;20025;-66
2022/10/10 05:35:45;;;;;;;12.43;11.73;;;;;;;13.68;100.00;101999.78;5023490;28;20029;-66
2022/10/10 05:38:10;;;;;;;12.18;11.55;;;;;;;12.58;100.00;101994.13;5021209;28;20029;-66
2022/10/10 05:40:41;;;;;;;11.55;10.95;;;;;;;12.01;100.00;102001.47;5024164;28;20459;-66
2022/10/10 05:43:07;;;;;;;11.75;11.15;;;;;;;11.84;100.00;101995.97;5026734;28;20044;-66
2022/10/10 05:45:32;;;;;;;13.48;12.68;;;;;;;11.91;100.00;102006.03;5021582;28;20409;-66
2022/10/10 05:47:58;;;;;;;13.38;12.60;;;;;;;12.27;100.00;101989.16;5020710;28;20046;-66
2022/10/10 05:50:32;;;;;;;12.35;11.68;;;;;;;11.98;100.00;102002.63;5024920;28;20057;-67
2022/10/10 05:52:58;;;;;;;;;;;;;;;12.32;100.00;101994.84;5023473;28;20029;-66
2022/10/10 05:55:24;;;;;;;11.80;11.20;;;;;;;16.54;100.00;101997.78;5023279;28;19924;-65
2022/10/10 05:57:49;;;;;;;11.32;10.73;;;;;;;12.48;100.00;101988.00;5024297;28;20033;-65
2022/10/10 06:00:15;;;;;;;11.73;11.13;;;;;;;15.99;100.00;102004.09;5023823;28;20508;-67
2022/10/10 06:02:41;;;;;;;10.98;10.48;;;;;;;17.40;100.00;101993.84;5024546;28;20038;-66
2022/10/10 06:05:07;;;;;;;12.15;11.55;;;;;;;17.86;100.00;101996.41;5026124;28;20388;-67
2022/10/10 06:07:33;;;;;;;12.48;11.82;;;;;;;17.47;100.00;101997.47;5023676;28;20036;-65
2022/10/10 06:09:58;;;;;;;11.45;10.90;;;;;;;21.52;90.93;102005.34;5022715;28;20025;-67
2022/10/10 06:12:24;;;;;;;11.20;10.70;;;;;;;19.99;90.75;102005.34;5022647;28;20025;-66
2022/10/10 06:14:49;;;;;;;11.90;11.30;;;;;;;23.08;75.00;102017.66;5022400;28;20041;-66
2022/10/10 06:17:15;;;;;;;11.10;10.60;;;;;;;24.33;62.04;102015.47;5017884;28;20084;-68
2022/10/10 06:19:40;;;;;;;11.27;10.77;;;;;;;24.60;61.10;102013.19;5027810;28;20037;-70
2022/10/10 06:22:06;;;;;;;12.27;11.68;;;;;;;23.69;72.48;102011.44;5022498;28;20034;-67
2022/10/10 06:24:31;;;;;;;11.70;11.20;;;;;;;25.38;57.08;102005.88;5023218;28;20484;-68
2022/10/10 06:26:57;;;;;;;12.15;11.60;;;;;;;26.02;54.53;102012.16;5021979;28;20436;-66
2022/10/10 06:29:22;;;;;;;11.63;11.13;;;;;;;26.02;49.73;102006.72;5020714;28;20362;-69
2022/10/10 06:31:48;;;;;;;11.90;11.40;;;;;;;26.87;48.83;102014.00;5019183;28;20048;-67
2022/10/10 06:34:13;;;;;;;11.45;10.95;;;;;;;26.43;47.29;102011.06;5019504;28;20152;-68
2022/10/10 06:36:38;;;;;;;11.73;11.23;;;;;;;27.21;45.46;102015.66;5023553;28;20029;-68
2022/10/10 06:39:04;;;;;;;11.82;11.32;;;;;;;25.83;47.33;102012.31;5020881;28;20100;-69
2022/10/10 06:41:29;;;;;;;11.48;10.98;;;;;;;27.18;45.36;102012.63;5018204;28;20120;-69
2022/10/10 06:43:55;;;;;;;12.10;11.60;;;;;;;25.72;48.80;102015.91;5022901;28;20044;-67
2022/10/10 06:46:20;;;;;;;11.27;10.77;;;;;;;23.07;54.72;102013.31;5022615;28;20045;-67
2022/10/10 06:48:46;;;;;;;10.88;10.38;;;;;;;20.08;86.01;102012.19;5026990;28;20029;-68
2022/10/10 06:51:14;;;;;;;11.23;10.73;;;;;;;20.24;82.34;102013.69;5018746;28;20051;-66
2022/10/10 06:53:42;;;;;;;12.32;11.73;;;;;;;19.14;92.26;102009.13;5024130;28;20112;-66
2022/10/10 06:56:14;;;;;;;11.55;11.05;;;;;;;20.02;88.03;102011.13;5018932;28;20028;-67
2022/10/10 06:58:40;;;;;;;12.50;11.90;;;;;;;22.80;77.06;102018.88;5018513;28;20124;-67
2022/10/10 07:01:05;;;;;;;12.38;11.77;;;;;;;21.10;85.25;102012.00;5020840;28;20541;-67
2022/10/10 07:03:31;;;;;;;12.20;11.60;;;;;;;19.56;91.89;102019.78;5024315;28;20034;-70
2022/10/10 07:05:59;;;;;;;11.73;11.23;;;;;;;21.75;85.23;102015.66;5042849;28;20109;-68
2022/10/10 07:08:25;;;;;;;11.50;11.00;;;;;;;24.58;64.39;102022.63;5024217;28;20099;-67
2022/10/10 07:10:51;;;;;;;11.15;10.65;;;;;;;23.02;68.28;102018.53;5019617;28;20030;-67
2022/10/10 07:13:17;;;;;;;12.32;11.73;;;;;;;24.46;63.32;102018.00;5023438;28;20029;-68
2022/10/10 07:15:43;;;;;;;11.80;11.30;;;;;;;24.78;56.77;102017.72;5024669;28;20476;-68
2022/10/10 07:18:08;;;;;;;11.65;11.15;;;;;;;25.95;52.22;102014.19;5023482;28;20037;-68
2022/10/10 07:20:35;;;;;;;11.48;10.98;;;;;;;25.59;52.99;102011.53;5019093;28;20510;-67
2022/10/10 07:23:01;;;;;;;10.70;10.20;;;;;;;25.23;52.93;102006.34;5019301;28;20036;-68
2022/10/10 07:25:27;;;;;;;10.80;10.30;;;;;;;25.04;54.47;102016.47;5024939;28;20032;-67
2022/10/10 07:27:53;;;;;;;11.10;10.60;;;;;;;26.78;49.73;102010.03;5023889;28;20473;-68
2022/10/10 07:30:19;;;;;;;11.35;10.85;;;;;;;26.37;47.93;102009.31;5015709;28;20043;-67
2022/10/10 07:32:45;;;;;;;11.18;10.68;;;;;;;26.52;47.15;102008.78;5020410;28;20025;-67
2022/10/10 07:35:13;;;;;;;11.85;11.35;;;;;;;26.14;46.39;102007.50;5026311;28;20440;-66
2022/10/10 07:37:39;;;;;;;10.95;10.45;;;;;;;27.24;45.64;102006.97;5018304;28;20455;-67
2022/10/10 07:40:07;;;;;;;11.07;10.57;;;;;;;27.88;44.07;102009.22;5023558;28;20029;-68
2022/10/10 07:42:32;;;;;;;11.10;10.60;;;;;;;26.89;43.43;102011.88;5025258;28;20033;-68
2022/10/10 07:44:58;;;;;;;10.88;10.38;;;;;;;27.24;44.55;102008.88;5024821;28;20535;-67
2022/10/10 07:47:23;;;;;;;11.30;10.80;;;;;;;26.97;43.29;102006.00;5025885;28;20057;-68
2022/10/10 07:49:49;;;;;;;10.75;10.25;;;;;;;25.19;48.79;101997.88;5023876;28;20037;-69
2022/10/10 07:52:14;;;;;;;11.30;10.80;;;;;;;26.35;45.76;102004.09;5023890;28;20116;-67
2022/10/10 07:54:40;;;;;;;10.90;10.40;;;;;;;26.23;46.15;101999.78;5023564;28;20033;-67
2022/10/10 07:57:05;;;;;;;10.90;10.40;;;;;;;26.61;46.89;101999.16;5024091;28;20491;-68
2022/10/10 07:59:31;;;;;;;11.40;10.90;;;;;;;27.17;44.79;101998.16;5021722;28;20071;-67
2022/10/10 08:01:57;;;;;;;11.00;10.50;;;;;;;27.11;44.42;101993.72;5024582;28;20028;-68
2022/10/10 08:04:22;;;;;;;11.60;11.10;;;;;;;26.82;45.31;101997.59;5023394;28;20033;-67
2022/10/10 08:06:47;;;;;;;10.90;10.40;;;;;;;27.26;43.71;101984.97;5026725;28;20068;-67
2022/10/10 08:09:13;;;;;;;10.90;10.40;;;;;;;26.74;43.88;101989.84;5024141;28;20532;-68
2022/10/10 08:11:39;;;;;;;10.77;10.27;;;;;;;27.54;42.79;101997.59;5025856;28;20033;-68
2022/10/10 08:14:05;;;;;;;11.20;10.70;;;;;;;27.99;42.84;101991.09;5025436;28;20021;-66
2022/10/10 08:16:30;;;;;;;11.15;10.65;;;;;;;27.06;43.24;101996.38;5032052;28;20026;-67
2022/10/10 08:18:56;;;;;;;10.88;10.38;;;;;;;27.51;44.29;101995.38;5028526;28;20033;-67
2022/10/10 08:21:21;;;;;;;10.75;10.25;;;;;;;26.77;45.96;101979.25;5028600;28;20026;-67
2022/10/10 08:23:47;;;;;;;10.98;10.48;;;;;;;28.07;42.16;101986.00;5028211;28;20700;-68
2022/10/10 08:26:14;;;;;;;10.98;10.48;;;;;;;28.93;40.50;101982.44;5022263;28;20025;-67
2022/10/10 08:28:40;;;;;;;10.60;10.10;;;;;;;27.19;42.46;101976.97;5024652;28;20029;-67
2022/10/10 08:31:12;;;;;;;11.60;11.10;;;;;;;26.96;41.87;101979.84;5027031;28;20124;-67
2022/10/10 08:33:38;;;;;;;10.48;10.00;;;;;;;27.54;44.65;101978.50;5031319;28;20051;-67
2022/10/10 08:36:07;;;;;;;10.90;10.40;;;;;;;28.00;42.27;101979.94;5027928;28;20037;-66
2022/10/10 08:38:33;;;;;;;11.20;10.70;;;;;;;27.19;42.42;101976.13;5029157;28;20072;-68
2022/10/10 08:41:06;;;;;;;11.18;10.68;;;;;;;27.24;41.99;101978.91;5025626;28;20485;-70
2022/10/10 08:43:43;;;;;;;11.90;11.40;;;;;;;26.43;43.16;101983.84;5017231;28;20041;-71
2022/10/10 08:46:28;;;;;;;11.27;10.77;;;;;;;26.49;44.63;101982.88;5018229;28;20053;-69
2022/10/10 08:48:56;;;;;;;10.88;10.38;;;;;;;27.43;43.03;101982.19;5028287;28;20033;-69
2022/10/10 08:51:28;;;;;;;11.15;10.63;;;;;;;26.27;44.33;101973.72;5025214;28;20112;-67
2022/10/10 08:53:58;;;;;;;11.68;11.18;;;;;;;26.73;43.82;101967.22;5028232;28;20030;-67
2022/10/10 08:56:31;;;;;;;12.70;12.10;;;;;;;24.83;47.28;101970.91;5017128;28;20124;-70
2022/10/10 08:59:09;;;;;;;11.10;10.60;;;;;;;26.16;46.44;101972.72;5021517;28;20044;-69
2022/10/10 09:01:37;;;;;;;11.32;10.82;;;;;;;25.79;46.14;101970.41;5042076;28;20067;-67
2022/10/10 09:04:05;;;;;;;11.45;10.95;;;;;;;25.20;46.68;101961.50;5017325;28;20080;-66
2022/10/10 09:06:49;;;;;;;14.15;13.45;;;;;;;24.25;52.35;101970.50;5022107;28;20055;-66
2022/10/10 09:09:44;;;;;;;11.73;11.23;;;;;;;24.25;52.91;101969.66;5025829;28;20059;-68
2022/10/10 09:12:28;;;;;;;13.75;13.05;;;;;;;25.15;50.23;101958.66;5019072;28;20127;-69
2022/10/10 09:14:56;;;;;;;12.38;11.77;;;;;;;26.23;47.06;101967.16;5023342;28;20365;-69
2022/10/10 09:17:37;;;;;;;11.88;11.38;;;;;;;26.46;44.91;101952.63;5024964;28;20029;-66
2022/10/10 09:20:05;;;;;;;11.80;11.30;;;;;;;24.87;48.01;101955.78;5017265;28;20116;-67
2022/10/10 09:22:34;;;;;;;11.77;11.27;;;;;;;23.10;57.85;101947.88;5020443;28;20048;-68
2022/10/10 09:25:21;;;;;;;11.65;11.15;;;;;;;21.13;69.69;101943.28;5017630;28;20022;-66
2022/10/10 09:27:57;;;;;;;12.43;11.82;;;;;;;22.47;66.98;101951.47;5027795;28;20061;-67
2022/10/10 09:30:24;;;;;;;12.23;11.63;;;;;;;21.71;69.15;101937.97;5026101;28;20041;-67
2022/10/10 09:33:17;;;;;;;11.88;11.27;;;;;;;21.54;72.42;101947.59;5024841;28;20034;-67
2022/10/10 09:35:45;;;;;;;12.25;11.65;;;;;;;21.55;72.35;101941.97;5019205;28;20132;-67
2022/10/10 09:38:13;;;;;;;11.73;11.13;;;;;;;20.44;69.33;101933.75;5020401;28;20084;-67
2022/10/10 09:40:48;;;;;;;12.45;11.85;;;;;;;20.40;70.04;101936.00;5026578;28;20116;-67
2022/10/10 09:43:17;;;;;;;11.88;11.27;;;;;;;20.13;73.89;101939.69;5027097;28;20025;-67
2022/10/10 09:45:51;;;;;;;12.38;11.77;;;;;;;20.54;70.40;101936.88;5027289;28;20036;-66
2022/10/10 09:48:18;;;;;;;15.32;14.43;;;;;;;20.07;74.86;101925.16;5015799;28;20030;-66
2022/10/10 09:50:44;;;;;;;12.88;12.18;;;;;;;19.28;79.28;101930.16;5019370;28;20074;-67
2022/10/10 09:53:16;;;;;;;13.07;12.38;;;;;;;18.33;84.45;101920.69;5018655;28;20032;-66
2022/10/10 09:55:44;;;;;;;12.45;11.82;;;;;;;18.87;84.83;101930.91;5019338;28;20045;-68
2022/10/10 09:58:25;;;;;;;12.30;11.70;;;;;;;19.50;80.83;101923.66;5023260;28;20587;-67
2022/10/10 10:00:52;;;;;;;12.32;11.73;;;;;;;18.89;82.05;101915.44;5023438;28;20025;-66
2022/10/10 10:03:20;;;;;;;11.57;11.00;;;;;;;18.58;85.47;101918.47;5020859;28;20049;-65
2022/10/10 10:05:55;;;;;;;12.10;11.50;;;;;;;18.68;85.32;101920.84;5028401;28;20038;-69
2022/10/10 10:08:25;;;;;;;12.38;11.77;;;;;;;18.23;89.83;101912.13;5026161;28;20107;-69
2022/10/10 10:10:50;;;;;;;12.30;11.70;;;;;;;18.30;91.08;101906.84;5025854;28;20033;-67
2022/10/10 10:13:23;;;;;;;12.40;11.80;;;;;;;18.18;91.96;101906.50;5017292;28;20094;-67
2022/10/10 10:15:55;;;;;;;11.30;10.77;;;;;;;17.78;94.96;101900.72;5007722;28;20403;-68
2022/10/10 10:18:26;;;;;;;11.63;11.02;;;;;;;18.32;93.04;101908.28;5026209;28;20155;-68
2022/10/10 10:21:19;;;;;;;11.98;11.38;;;;;;;18.73;90.78;101905.81;5024439;28;20105;-69
2022/10/10 10:23:52;;;;;;;13.10;12.40;;;;;;;18.11;93.93;101884.94;5019593;28;20433;-68
2022/10/10 10:26:24;;;;;;;15.10;14.20;;;;;;;18.24;93.87;101878.88;5009551;28;20029;-70
2022/10/10 10:28:51;;;;;;;11.70;11.10;;;;;;;17.95;95.20;101887.88;5020780;28;20040;-68
2022/10/10 10:31:23;;;;;;;12.57;11.88;;;;;;;18.09;94.73;101880.78;5019786;28;20116;-68
2022/10/10 10:34:03;;;;;;;11.85;11.25;;;;;;;18.48;94.19;101883.84;5020507;28;20025;-67
2022/10/10 10:37:07;;;;;;;12.48;11.88;;;;;;;17.20;88.98;101880.94;5016330;28;20053;-68
2022/10/10 10:39:54;;;;;;;12.00;11.40;;;;;;;17.63;89.61;101881.91;4982110;28;20030;-69
2022/10/10 10:42:28;;;;;;;15.10;14.20;;;;;;;17.62;86.83;101874.88;4975909;28;20030;-67
2022/10/10 10:44:59;;;;;;;;;;;;;;;18.45;83.68;101875.34;5002324;28;20123;-67
2022/10/10 10:47:52;;;;;;;11.98;11.38;;;;;;;17.89;80.69;101873.34;5020760;28;19924;-67
2022/10/10 10:50:51;;;;;;;11.95;11.35;;;;;;;18.28;83.07;101866.72;5027680;28;20025;-68
2022/10/10 10:53:45;;;;;;;11.88;11.27;;;;;;;18.23;84.54;101870.00;5024058;28;20057;-69
2022/10/10 10:56:32;;;;;;;11.40;10.90;;;;;;;18.06;84.33;101867.72;5026358;28;20443;-68
2022/10/10 10:59:16;;;;;;;10.77;10.27;;;;;;;18.13;85.72;101860.56;5017255;28;20625;-67
2022/10/10 11:01:59;;;;;;;11.48;10.90;;;;;;;17.26;88.57;101858.75;5054832;28;20029;-69
2022/10/10 11:05:12;;;;;;;11.57;10.98;;;;;;;17.52;85.67;101863.59;5023953;28;20463;-67
2022/10/10 11:07:57;;;;;;;10.70;10.20;;;;;;;18.15;83.15;101861.25;5003667;28;20025;-67
2022/10/10 11:10:31;;;;;;;10.85;10.35;;;;;;;18.31;77.76;101855.59;5023484;28;20526;-68
2022/10/10 11:13:22;;;;;;;10.75;10.25;;;;;;;18.55;77.69;101856.19;5025980;28;20038;-66
2022/10/10 11:15:53;;;;;;;11.38;10.77;;;;;;;17.95;83.45;101837.69;5024183;28;20049;-67
2022/10/10 11:18:29;;;;;;;10.65;10.15;;;;;;;18.25;82.37;101842.94;5025341;28;20404;-67
2022/10/10 11:21:03;;;;;;;11.05;10.55;;;;;;;18.69;78.74;101844.56;5024763;28;20033;-66
2022/10/10 11:23:53;;;;;;;11.30;10.80;;;;;;;18.18;85.29;101842.03;5022785;28;20053;-66